sensor_id;sensor_type;location;lat;lon;timestamp;P1;durP1;ratioP1;P2;durP2;ratioP2
27491;SDS011;14927;51.210;6.838;2023-05-15T00:01:59;9.93;;;5.45;;
27491;SDS011;14927;51.210;6.838;2023-05-15T00:04:44;6.93;;;5.45;;
27491;SDS011;14927;51.210;6.838;2023-05-15T00:07:29;10.23;;;5.45;;
27491;SDS011;14927;51.210;6.838;2023-05-15T00:10:14;13.63;;;5.65;;
27491;SDS011;14927;51.210;6.838;2023-05-15T00:12:58;6.57;;;4.55;;
27491;SDS011;14927;51.210;6.838;2023-05-15T00:15:43;10.90;;;5.30;;
27491;SDS011;14927;51.210;6.838;2023-05-15T00:18:27;7.75;;;5.47;;
27491;SDS011;14927;51.210;6.838;2023-05-15T00:21:12;10.15;;;6.00;;
27491;SDS011;14927;51.210;6.838;2023-05-15T00:23:56;6.35;;;5.70;;
27491;SDS011;14927;51.210;6.838;2023-05-15T00:26:41;8.43;;;5.32;;
27491;SDS011;14927;51.210;6.838;2023-05-15T00:29:26;7.15;;;5.40;;
27491;SDS011;14927;51.210;6.838;2023-05-15T00:32:10;7.28;;;5.10;;
27491;SDS011;14927;51.210;6.838;2023-05-15T00:34:55;9.68;;;5.85;;
27491;SDS011;14927;51.210;6.838;2023-05-15T00:37:39;7.45;;;5.72;;
27491;SDS011;14927;51.210;6.838;2023-05-15T00:40:24;6.63;;;5.38;;
27491;SDS011;14927;51.210;6.838;2023-05-15T00:43:09;12.48;;;6.25;;
27491;SDS011;14927;51.210;6.838;2023-05-15T00:45:55;8.55;;;6.90;;
27491;SDS011;14927;51.210;6.838;2023-05-15T00:48:42;6.68;;;5.97;;
27491;SDS011;14927;51.210;6.838;2023-05-15T00:51:26;9.65;;;6.63;;
27491;SDS011;14927;51.210;6.838;2023-05-15T00:54:11;9.27;;;6.95;;
27491;SDS011;14927;51.210;6.838;2023-05-15T00:56:56;14.48;;;8.90;;
27491;SDS011;14927;51.210;6.838;2023-05-15T00:59:42;11.30;;;7.82;;
27491;SDS011;14927;51.210;6.838;2023-05-15T01:02:28;13.75;;;10.00;;
27491;SDS011;14927;51.210;6.838;2023-05-15T01:05:13;18.52;;;11.27;;
27491;SDS011;14927;51.210;6.838;2023-05-15T01:08:59;16.10;;;10.77;;
27491;SDS011;14927;51.210;6.838;2023-05-15T01:11:28;13.57;;;10.90;;
27491;SDS011;14927;51.210;6.838;2023-05-15T01:14:19;21.67;;;12.68;;
27491;SDS011;14927;51.210;6.838;2023-05-15T01:17:04;22.83;;;13.88;;
27491;SDS011;14927;51.210;6.838;2023-05-15T01:19:49;20.23;;;13.52;;
27491;SDS011;14927;51.210;6.838;2023-05-15T01:22:51;20.40;;;14.38;;
27491;SDS011;14927;51.210;6.838;2023-05-15T01:26:01;20.00;;;13.00;;
27491;SDS011;14927;51.210;6.838;2023-05-15T01:29:11;16.77;;;11.75;;
27491;SDS011;14927;51.210;6.838;2023-05-15T01:32:11;18.02;;;11.90;;
27491;SDS011;14927;51.210;6.838;2023-05-15T01:35:15;25.60;;;14.55;;
27491;SDS011;14927;51.210;6.838;2023-05-15T01:41:37;57.00;;;29.15;;
27491;SDS011;14927;51.210;6.838;2023-05-15T01:44:35;40.67;;;24.73;;
27491;SDS011;14927;51.210;6.838;2023-05-15T01:47:28;60.20;;;30.83;;
27491;SDS011;14927;51.210;6.838;2023-05-15T01:50:27;54.90;;;28.80;;
27491;SDS011;14927;51.210;6.838;2023-05-15T01:53:15;55.08;;;29.55;;
27491;SDS011;14927;51.210;6.838;2023-05-15T01:56:04;53.65;;;29.10;;
27491;SDS011;14927;51.210;6.838;2023-05-15T01:58:52;59.03;;;30.20;;
27491;SDS011;14927;51.210;6.838;2023-05-15T02:01:38;68.47;;;34.70;;
27491;SDS011;14927;51.210;6.838;2023-05-15T02:04:24;65.28;;;32.78;;
27491;SDS011;14927;51.210;6.838;2023-05-15T02:07:09;59.78;;;31.38;;
27491;SDS011;14927;51.210;6.838;2023-05-15T02:09:54;50.90;;;26.58;;
27491;SDS011;14927;51.210;6.838;2023-05-15T02:12:40;36.08;;;24.65;;
27491;SDS011;14927;51.210;6.838;2023-05-15T02:15:26;48.42;;;26.67;;
27491;SDS011;14927;51.210;6.838;2023-05-15T02:18:13;35.85;;;23.38;;
27491;SDS011;14927;51.210;6.838;2023-05-15T02:20:57;41.13;;;24.42;;
27491;SDS011;14927;51.210;6.838;2023-05-15T02:23:43;30.95;;;20.60;;
27491;SDS011;14927;51.210;6.838;2023-05-15T02:26:30;27.45;;;18.42;;
27491;SDS011;14927;51.210;6.838;2023-05-15T02:29:40;22.90;;;16.52;;
27491;SDS011;14927;51.210;6.838;2023-05-15T02:32:58;22.90;;;16.48;;
27491;SDS011;14927;51.210;6.838;2023-05-15T02:36:05;20.52;;;15.52;;
27491;SDS011;14927;51.210;6.838;2023-05-15T02:38:52;22.58;;;15.98;;
27491;SDS011;14927;51.210;6.838;2023-05-15T02:41:38;20.10;;;15.50;;
27491;SDS011;14927;51.210;6.838;2023-05-15T02:44:23;20.83;;;16.17;;
27491;SDS011;14927;51.210;6.838;2023-05-15T02:47:09;24.73;;;16.27;;
27491;SDS011;14927;51.210;6.838;2023-05-15T02:49:54;20.23;;;15.23;;
27491;SDS011;14927;51.210;6.838;2023-05-15T02:52:39;22.70;;;15.50;;
27491;SDS011;14927;51.210;6.838;2023-05-15T02:55:24;16.17;;;14.35;;
27491;SDS011;14927;51.210;6.838;2023-05-15T02:58:08;23.27;;;14.20;;
27491;SDS011;14927;51.210;6.838;2023-05-15T03:00:53;19.63;;;14.52;;
27491;SDS011;14927;51.210;6.838;2023-05-15T03:03:38;18.10;;;14.23;;
27491;SDS011;14927;51.210;6.838;2023-05-15T03:06:22;25.38;;;15.85;;
27491;SDS011;14927;51.210;6.838;2023-05-15T03:09:07;22.15;;;14.88;;
27491;SDS011;14927;51.210;6.838;2023-05-15T03:11:52;22.98;;;15.50;;
27491;SDS011;14927;51.210;6.838;2023-05-15T03:14:36;21.98;;;15.80;;
27491;SDS011;14927;51.210;6.838;2023-05-15T03:17:21;25.95;;;16.58;;
27491;SDS011;14927;51.210;6.838;2023-05-15T03:20:06;23.23;;;16.90;;
27491;SDS011;14927;51.210;6.838;2023-05-15T03:22:51;29.27;;;18.55;;
27491;SDS011;14927;51.210;6.838;2023-05-15T03:25:36;28.90;;;18.42;;
27491;SDS011;14927;51.210;6.838;2023-05-15T03:28:23;24.05;;;17.73;;
27491;SDS011;14927;51.210;6.838;2023-05-15T03:31:08;26.48;;;19.40;;
27491;SDS011;14927;51.210;6.838;2023-05-15T03:33:52;27.90;;;19.33;;
27491;SDS011;14927;51.210;6.838;2023-05-15T03:36:37;32.63;;;19.35;;
27491;SDS011;14927;51.210;6.838;2023-05-15T03:39:21;33.83;;;19.83;;
27491;SDS011;14927;51.210;6.838;2023-05-15T03:42:06;32.92;;;21.88;;
27491;SDS011;14927;51.210;6.838;2023-05-15T03:44:50;38.63;;;22.27;;
27491;SDS011;14927;51.210;6.838;2023-05-15T03:47:35;41.40;;;23.27;;
27491;SDS011;14927;51.210;6.838;2023-05-15T03:50:20;33.92;;;22.95;;
27491;SDS011;14927;51.210;6.838;2023-05-15T03:53:04;37.78;;;24.02;;
27491;SDS011;14927;51.210;6.838;2023-05-15T03:55:49;39.03;;;24.73;;
27491;SDS011;14927;51.210;6.838;2023-05-15T03:58:34;37.10;;;23.45;;
27491;SDS011;14927;51.210;6.838;2023-05-15T04:01:18;35.70;;;24.35;;
27491;SDS011;14927;51.210;6.838;2023-05-15T04:04:03;52.38;;;28.98;;
27491;SDS011;14927;51.210;6.838;2023-05-15T04:06:49;71.63;;;38.05;;
27491;SDS011;14927;51.210;6.838;2023-05-15T04:09:34;81.05;;;40.38;;
27491;SDS011;14927;51.210;6.838;2023-05-15T04:12:18;76.72;;;39.42;;
27491;SDS011;14927;51.210;6.838;2023-05-15T04:15:16;76.10;;;37.92;;
27491;SDS011;14927;51.210;6.838;2023-05-15T04:18:05;84.35;;;42.67;;
27491;SDS011;14927;51.210;6.838;2023-05-15T04:20:50;88.38;;;45.60;;
27491;SDS011;14927;51.210;6.838;2023-05-15T04:23:35;89.32;;;46.67;;
27491;SDS011;14927;51.210;6.838;2023-05-15T04:26:20;84.32;;;46.67;;
27491;SDS011;14927;51.210;6.838;2023-05-15T04:29:07;86.55;;;45.78;;
27491;SDS011;14927;51.210;6.838;2023-05-15T04:31:52;82.43;;;44.45;;
27491;SDS011;14927;51.210;6.838;2023-05-15T04:34:37;78.07;;;44.47;;
27491;SDS011;14927;51.210;6.838;2023-05-15T04:37:21;77.90;;;46.45;;
27491;SDS011;14927;51.210;6.838;2023-05-15T04:40:06;77.68;;;44.92;;
27491;SDS011;14927;51.210;6.838;2023-05-15T04:42:52;77.63;;;45.95;;
27491;SDS011;14927;51.210;6.838;2023-05-15T04:45:36;77.07;;;44.63;;
27491;SDS011;14927;51.210;6.838;2023-05-15T04:48:21;71.30;;;44.13;;
27491;SDS011;14927;51.210;6.838;2023-05-15T04:51:06;78.80;;;45.60;;
27491;SDS011;14927;51.210;6.838;2023-05-15T04:56:41;71.57;;;42.15;;
27491;SDS011;14927;51.210;6.838;2023-05-15T04:59:25;73.53;;;43.08;;
27491;SDS011;14927;51.210;6.838;2023-05-15T05:02:11;69.53;;;42.33;;
27491;SDS011;14927;51.210;6.838;2023-05-15T05:04:56;68.05;;;39.75;;
27491;SDS011;14927;51.210;6.838;2023-05-15T05:07:40;72.68;;;42.17;;
27491;SDS011;14927;51.210;6.838;2023-05-15T05:10:26;65.40;;;40.03;;
27491;SDS011;14927;51.210;6.838;2023-05-15T05:13:11;71.03;;;38.55;;
27491;SDS011;14927;51.210;6.838;2023-05-15T05:15:55;59.28;;;37.72;;
27491;SDS011;14927;51.210;6.838;2023-05-15T05:18:40;60.83;;;37.10;;
27491;SDS011;14927;51.210;6.838;2023-05-15T05:21:25;64.25;;;37.30;;
27491;SDS011;14927;51.210;6.838;2023-05-15T05:24:09;60.22;;;35.72;;
27491;SDS011;14927;51.210;6.838;2023-05-15T05:26:54;61.90;;;35.55;;
27491;SDS011;14927;51.210;6.838;2023-05-15T05:29:41;52.88;;;31.58;;
27491;SDS011;14927;51.210;6.838;2023-05-15T05:32:25;40.53;;;27.17;;
27491;SDS011;14927;51.210;6.838;2023-05-15T05:35:10;40.22;;;26.02;;
27491;SDS011;14927;51.210;6.838;2023-05-15T05:37:54;36.53;;;23.67;;
27491;SDS011;14927;51.210;6.838;2023-05-15T05:40:39;31.50;;;21.15;;
27491;SDS011;14927;51.210;6.838;2023-05-15T05:43:24;30.13;;;21.52;;
27491;SDS011;14927;51.210;6.838;2023-05-15T05:46:09;27.27;;;21.25;;
27491;SDS011;14927;51.210;6.838;2023-05-15T05:48:54;30.98;;;20.55;;
27491;SDS011;14927;51.210;6.838;2023-05-15T05:51:39;31.05;;;23.35;;
27491;SDS011;14927;51.210;6.838;2023-05-15T05:54:24;26.77;;;20.73;;
27491;SDS011;14927;51.210;6.838;2023-05-15T05:57:08;29.02;;;21.65;;
27491;SDS011;14927;51.210;6.838;2023-05-15T05:59:53;29.70;;;21.33;;
27491;SDS011;14927;51.210;6.838;2023-05-15T06:02:38;28.67;;;20.98;;
27491;SDS011;14927;51.210;6.838;2023-05-15T06:05:23;27.10;;;21.40;;
27491;SDS011;14927;51.210;6.838;2023-05-15T06:08:11;29.20;;;21.30;;
27491;SDS011;14927;51.210;6.838;2023-05-15T06:10:56;26.30;;;20.67;;
27491;SDS011;14927;51.210;6.838;2023-05-15T06:13:40;35.67;;;22.45;;
27491;SDS011;14927;51.210;6.838;2023-05-15T06:16:26;27.30;;;21.15;;
27491;SDS011;14927;51.210;6.838;2023-05-15T06:19:10;29.75;;;21.90;;
27491;SDS011;14927;51.210;6.838;2023-05-15T06:21:55;28.55;;;21.45;;
27491;SDS011;14927;51.210;6.838;2023-05-15T06:24:39;28.65;;;20.88;;
27491;SDS011;14927;51.210;6.838;2023-05-15T06:27:24;26.75;;;20.13;;
27491;SDS011;14927;51.210;6.838;2023-05-15T06:30:09;32.30;;;22.52;;
27491;SDS011;14927;51.210;6.838;2023-05-15T06:32:55;32.25;;;22.92;;
27491;SDS011;14927;51.210;6.838;2023-05-15T06:35:39;33.30;;;22.65;;
27491;SDS011;14927;51.210;6.838;2023-05-15T06:38:24;26.58;;;22.17;;
27491;SDS011;14927;51.210;6.838;2023-05-15T06:41:09;32.20;;;23.55;;
27491;SDS011;14927;51.210;6.838;2023-05-15T06:43:53;32.63;;;22.48;;
27491;SDS011;14927;51.210;6.838;2023-05-15T06:46:38;31.17;;;24.08;;
27491;SDS011;14927;51.210;6.838;2023-05-15T06:49:23;33.55;;;23.88;;
27491;SDS011;14927;51.210;6.838;2023-05-15T06:52:08;34.10;;;25.38;;
27491;SDS011;14927;51.210;6.838;2023-05-15T06:54:52;31.83;;;24.98;;
27491;SDS011;14927;51.210;6.838;2023-05-15T06:57:37;33.15;;;23.98;;
27491;SDS011;14927;51.210;6.838;2023-05-15T07:00:22;31.45;;;23.55;;
27491;SDS011;14927;51.210;6.838;2023-05-15T07:03:06;30.00;;;22.70;;
27491;SDS011;14927;51.210;6.838;2023-05-15T07:05:52;33.25;;;24.83;;
27491;SDS011;14927;51.210;6.838;2023-05-15T07:08:36;28.60;;;23.33;;
27491;SDS011;14927;51.210;6.838;2023-05-15T07:11:21;32.92;;;24.00;;
27491;SDS011;14927;51.210;6.838;2023-05-15T07:14:05;36.38;;;25.55;;
27491;SDS011;14927;51.210;6.838;2023-05-15T07:16:50;33.08;;;24.33;;
27491;SDS011;14927;51.210;6.838;2023-05-15T07:19:35;30.77;;;25.02;;
27491;SDS011;14927;51.210;6.838;2023-05-15T07:22:19;31.77;;;24.08;;
27491;SDS011;14927;51.210;6.838;2023-05-15T07:25:04;37.63;;;25.13;;
27491;SDS011;14927;51.210;6.838;2023-05-15T07:27:49;33.53;;;23.23;;
27491;SDS011;14927;51.210;6.838;2023-05-15T07:30:34;31.77;;;23.38;;
27491;SDS011;14927;51.210;6.838;2023-05-15T07:33:18;27.50;;;22.55;;
27491;SDS011;14927;51.210;6.838;2023-05-15T07:36:03;27.33;;;20.63;;
27491;SDS011;14927;51.210;6.838;2023-05-15T07:38:48;26.60;;;20.23;;
27491;SDS011;14927;51.210;6.838;2023-05-15T07:41:32;24.25;;;19.13;;
27491;SDS011;14927;51.210;6.838;2023-05-15T07:44:17;30.95;;;19.92;;
27491;SDS011;14927;51.210;6.838;2023-05-15T07:47:02;28.13;;;19.50;;
27491;SDS011;14927;51.210;6.838;2023-05-15T07:49:46;23.60;;;17.70;;
27491;SDS011;14927;51.210;6.838;2023-05-15T07:52:31;25.30;;;18.95;;
27491;SDS011;14927;51.210;6.838;2023-05-15T07:55:15;22.60;;;18.00;;
27491;SDS011;14927;51.210;6.838;2023-05-15T07:58:00;23.10;;;17.65;;
27491;SDS011;14927;51.210;6.838;2023-05-15T08:00:45;22.45;;;18.17;;
27491;SDS011;14927;51.210;6.838;2023-05-15T08:03:29;24.65;;;18.55;;
27491;SDS011;14927;51.210;6.838;2023-05-15T08:06:14;23.10;;;18.20;;
27491;SDS011;14927;51.210;6.838;2023-05-15T08:08:59;27.88;;;18.55;;
27491;SDS011;14927;51.210;6.838;2023-05-15T08:11:43;24.63;;;17.88;;
27491;SDS011;14927;51.210;6.838;2023-05-15T08:14:28;24.10;;;18.23;;
27491;SDS011;14927;51.210;6.838;2023-05-15T08:17:12;23.35;;;18.10;;
27491;SDS011;14927;51.210;6.838;2023-05-15T08:19:57;26.42;;;18.00;;
27491;SDS011;14927;51.210;6.838;2023-05-15T08:22:42;23.13;;;17.17;;
27491;SDS011;14927;51.210;6.838;2023-05-15T08:25:26;20.75;;;15.95;;
27491;SDS011;14927;51.210;6.838;2023-05-15T08:28:11;19.58;;;15.20;;
27491;SDS011;14927;51.210;6.838;2023-05-15T08:30:56;20.85;;;15.75;;
27491;SDS011;14927;51.210;6.838;2023-05-15T08:33:41;20.20;;;16.05;;
27491;SDS011;14927;51.210;6.838;2023-05-15T08:36:25;20.77;;;16.08;;
27491;SDS011;14927;51.210;6.838;2023-05-15T08:39:10;20.58;;;15.70;;
27491;SDS011;14927;51.210;6.838;2023-05-15T08:41:55;26.40;;;15.93;;
27491;SDS011;14927;51.210;6.838;2023-05-15T08:44:54;19.88;;;16.13;;
27491;SDS011;14927;51.210;6.838;2023-05-15T08:47:39;19.02;;;15.43;;
27491;SDS011;14927;51.210;6.838;2023-05-15T08:50:25;24.42;;;15.15;;
27491;SDS011;14927;51.210;6.838;2023-05-15T08:53:11;20.60;;;15.88;;
27491;SDS011;14927;51.210;6.838;2023-05-15T08:55:57;21.27;;;16.13;;
27491;SDS011;14927;51.210;6.838;2023-05-15T08:58:41;20.88;;;15.63;;
27491;SDS011;14927;51.210;6.838;2023-05-15T09:01:27;21.25;;;16.75;;
27491;SDS011;14927;51.210;6.838;2023-05-15T09:04:13;27.85;;;15.77;;
27491;SDS011;14927;51.210;6.838;2023-05-15T09:06:58;19.73;;;14.70;;
27491;SDS011;14927;51.210;6.838;2023-05-15T09:09:44;23.90;;;16.60;;
27491;SDS011;14927;51.210;6.838;2023-05-15T09:12:30;19.45;;;14.32;;
27491;SDS011;14927;51.210;6.838;2023-05-15T09:15:23;20.50;;;15.27;;
27491;SDS011;14927;51.210;6.838;2023-05-15T09:18:08;22.45;;;14.15;;
27491;SDS011;14927;51.210;6.838;2023-05-15T09:24:15;26.80;;;14.90;;
27491;SDS011;14927;51.210;6.838;2023-05-15T09:27:01;17.52;;;14.25;;
27491;SDS011;14927;51.210;6.838;2023-05-15T09:29:49;20.90;;;15.30;;
27491;SDS011;14927;51.210;6.838;2023-05-15T09:32:36;17.48;;;14.10;;
27491;SDS011;14927;51.210;6.838;2023-05-15T09:35:31;22.00;;;15.20;;
27491;SDS011;14927;51.210;6.838;2023-05-15T09:38:17;21.05;;;14.38;;
27491;SDS011;14927;51.210;6.838;2023-05-15T09:41:03;23.92;;;15.25;;
27491;SDS011;14927;51.210;6.838;2023-05-15T09:43:49;17.05;;;13.68;;
27491;SDS011;14927;51.210;6.838;2023-05-15T09:46:34;17.00;;;14.25;;
27491;SDS011;14927;51.210;6.838;2023-05-15T09:49:20;18.85;;;13.57;;
27491;SDS011;14927;51.210;6.838;2023-05-15T09:52:08;16.92;;;13.93;;
27491;SDS011;14927;51.210;6.838;2023-05-15T09:54:53;24.42;;;12.98;;
27491;SDS011;14927;51.210;6.838;2023-05-15T09:57:38;22.85;;;13.77;;
27491;SDS011;14927;51.210;6.838;2023-05-15T10:00:22;16.98;;;13.50;;
27491;SDS011;14927;51.210;6.838;2023-05-15T10:03:08;17.58;;;12.98;;
27491;SDS011;14927;51.210;6.838;2023-05-15T10:06:02;19.13;;;12.73;;
27491;SDS011;14927;51.210;6.838;2023-05-15T10:08:54;17.33;;;12.98;;
27491;SDS011;14927;51.210;6.838;2023-05-15T10:11:42;18.40;;;14.23;;
27491;SDS011;14927;51.210;6.838;2023-05-15T10:14:36;19.55;;;13.70;;
27491;SDS011;14927;51.210;6.838;2023-05-15T10:17:20;17.05;;;13.45;;
27491;SDS011;14927;51.210;6.838;2023-05-15T10:20:05;16.80;;;13.25;;
27491;SDS011;14927;51.210;6.838;2023-05-15T10:22:52;19.83;;;11.93;;
27491;SDS011;14927;51.210;6.838;2023-05-15T10:25:49;17.60;;;12.18;;
27491;SDS011;14927;51.210;6.838;2023-05-15T10:28:44;18.15;;;13.60;;
27491;SDS011;14927;51.210;6.838;2023-05-15T10:31:30;18.05;;;12.45;;
27491;SDS011;14927;51.210;6.838;2023-05-15T10:34:14;22.35;;;13.65;;
27491;SDS011;14927;51.210;6.838;2023-05-15T10:36:59;17.38;;;12.55;;
27491;SDS011;14927;51.210;6.838;2023-05-15T10:39:44;16.70;;;12.52;;
27491;SDS011;14927;51.210;6.838;2023-05-15T10:42:30;22.92;;;13.18;;
27491;SDS011;14927;51.210;6.838;2023-05-15T10:45:16;14.40;;;11.18;;
27491;SDS011;14927;51.210;6.838;2023-05-15T10:48:01;17.35;;;12.02;;
27491;SDS011;14927;51.210;6.838;2023-05-15T10:50:48;17.05;;;12.90;;
27491;SDS011;14927;51.210;6.838;2023-05-15T10:53:33;15.70;;;11.25;;
27491;SDS011;14927;51.210;6.838;2023-05-15T10:56:18;15.05;;;11.45;;
27491;SDS011;14927;51.210;6.838;2023-05-15T10:59:08;17.33;;;11.70;;
27491;SDS011;14927;51.210;6.838;2023-05-15T11:04:39;14.20;;;10.23;;
27491;SDS011;14927;51.210;6.838;2023-05-15T11:07:24;18.10;;;11.38;;
27491;SDS011;14927;51.210;6.838;2023-05-15T11:13:26;16.85;;;11.48;;
27491;SDS011;14927;51.210;6.838;2023-05-15T11:19:54;15.57;;;11.52;;
27491;SDS011;14927;51.210;6.838;2023-05-15T11:22:42;15.75;;;10.30;;
27491;SDS011;14927;51.210;6.838;2023-05-15T11:25:42;18.67;;;12.27;;
27491;SDS011;14927;51.210;6.838;2023-05-15T11:28:42;11.90;;;10.35;;
27491;SDS011;14927;51.210;6.838;2023-05-15T11:31:30;15.63;;;9.73;;
27491;SDS011;14927;51.210;6.838;2023-05-15T11:34:14;12.98;;;10.13;;
27491;SDS011;14927;51.210;6.838;2023-05-15T11:37:16;13.68;;;10.68;;
27491;SDS011;14927;51.210;6.838;2023-05-15T11:40:00;13.82;;;10.75;;
27491;SDS011;14927;51.210;6.838;2023-05-15T11:46:11;13.93;;;10.95;;
27491;SDS011;14927;51.210;6.838;2023-05-15T11:48:57;13.52;;;10.70;;
27491;SDS011;14927;51.210;6.838;2023-05-15T11:51:42;13.00;;;9.90;;
27491;SDS011;14927;51.210;6.838;2023-05-15T11:54:26;11.45;;;9.30;;
27491;SDS011;14927;51.210;6.838;2023-05-15T11:57:11;18.48;;;10.50;;
27491;SDS011;14927;51.210;6.838;2023-05-15T11:59:56;14.77;;;10.73;;
27491;SDS011;14927;51.210;6.838;2023-05-15T12:02:40;14.77;;;9.70;;
27491;SDS011;14927;51.210;6.838;2023-05-15T12:05:25;11.63;;;8.50;;
27491;SDS011;14927;51.210;6.838;2023-05-15T12:08:10;14.98;;;9.48;;
27491;SDS011;14927;51.210;6.838;2023-05-15T12:10:56;11.05;;;8.25;;
27491;SDS011;14927;51.210;6.838;2023-05-15T12:13:42;15.45;;;9.93;;
27491;SDS011;14927;51.210;6.838;2023-05-15T12:16:27;15.05;;;9.40;;
27491;SDS011;14927;51.210;6.838;2023-05-15T12:19:11;12.18;;;8.57;;
27491;SDS011;14927;51.210;6.838;2023-05-15T12:21:56;13.00;;;9.35;;
27491;SDS011;14927;51.210;6.838;2023-05-15T12:24:41;13.55;;;9.30;;
27491;SDS011;14927;51.210;6.838;2023-05-15T12:27:25;13.60;;;9.90;;
27491;SDS011;14927;51.210;6.838;2023-05-15T12:30:11;11.30;;;9.40;;
27491;SDS011;14927;51.210;6.838;2023-05-15T12:33:07;13.85;;;10.15;;
27491;SDS011;14927;51.210;6.838;2023-05-15T12:35:53;11.10;;;9.32;;
27491;SDS011;14927;51.210;6.838;2023-05-15T12:38:39;10.90;;;8.93;;
27491;SDS011;14927;51.210;6.838;2023-05-15T12:41:27;16.05;;;9.45;;
27491;SDS011;14927;51.210;6.838;2023-05-15T12:44:15;12.13;;;9.20;;
27491;SDS011;14927;51.210;6.838;2023-05-15T12:47:00;10.60;;;9.07;;
27491;SDS011;14927;51.210;6.838;2023-05-15T12:49:45;10.65;;;7.97;;
27491;SDS011;14927;51.210;6.838;2023-05-15T12:52:30;9.43;;;8.15;;
27491;SDS011;14927;51.210;6.838;2023-05-15T12:55:15;9.50;;;7.68;;
27491;SDS011;14927;51.210;6.838;2023-05-15T12:58:05;9.05;;;7.43;;
27491;SDS011;14927;51.210;6.838;2023-05-15T13:00:52;10.63;;;7.05;;
27491;SDS011;14927;51.210;6.838;2023-05-15T13:03:37;11.23;;;7.85;;
27491;SDS011;14927;51.210;6.838;2023-05-15T13:06:22;12.05;;;8.43;;
27491;SDS011;14927;51.210;6.838;2023-05-15T13:09:06;7.78;;;6.97;;
27491;SDS011;14927;51.210;6.838;2023-05-15T13:11:55;8.40;;;6.72;;
27491;SDS011;14927;51.210;6.838;2023-05-15T13:14:40;8.80;;;7.65;;
27491;SDS011;14927;51.210;6.838;2023-05-15T13:17:25;12.65;;;7.60;;
27491;SDS011;14927;51.210;6.838;2023-05-15T13:20:13;12.82;;;7.68;;
27491;SDS011;14927;51.210;6.838;2023-05-15T13:22:57;10.57;;;7.18;;
27491;SDS011;14927;51.210;6.838;2023-05-15T13:25:44;10.27;;;7.45;;
27491;SDS011;14927;51.210;6.838;2023-05-15T13:28:28;7.47;;;6.20;;
27491;SDS011;14927;51.210;6.838;2023-05-15T13:31:13;8.02;;;6.25;;
27491;SDS011;14927;51.210;6.838;2023-05-15T13:33:58;6.75;;;4.75;;
27491;SDS011;14927;51.210;6.838;2023-05-15T13:36:42;5.68;;;5.07;;
27491;SDS011;14927;51.210;6.838;2023-05-15T13:39:27;8.20;;;5.70;;
27491;SDS011;14927;51.210;6.838;2023-05-15T13:42:11;14.32;;;8.45;;
27491;SDS011;14927;51.210;6.838;2023-05-15T13:44:56;11.13;;;8.68;;
27491;SDS011;14927;51.210;6.838;2023-05-15T13:47:41;10.98;;;8.95;;
27491;SDS011;14927;51.210;6.838;2023-05-15T13:50:26;9.30;;;8.38;;
27491;SDS011;14927;51.210;6.838;2023-05-15T13:53:11;11.10;;;9.70;;
27491;SDS011;14927;51.210;6.838;2023-05-15T13:55:59;13.60;;;10.18;;
27491;SDS011;14927;51.210;6.838;2023-05-15T13:58:43;11.27;;;8.60;;
27491;SDS011;14927;51.210;6.838;2023-05-15T14:01:28;10.90;;;8.65;;
27491;SDS011;14927;51.210;6.838;2023-05-15T14:04:13;10.07;;;8.43;;
27491;SDS011;14927;51.210;6.838;2023-05-15T14:06:58;9.55;;;8.52;;
27491;SDS011;14927;51.210;6.838;2023-05-15T14:09:43;13.43;;;8.93;;
27491;SDS011;14927;51.210;6.838;2023-05-15T14:12:27;10.00;;;7.78;;
27491;SDS011;14927;51.210;6.838;2023-05-15T14:15:12;10.95;;;7.93;;
27491;SDS011;14927;51.210;6.838;2023-05-15T14:17:56;12.13;;;8.50;;
27491;SDS011;14927;51.210;6.838;2023-05-15T14:20:41;9.63;;;7.82;;
27491;SDS011;14927;51.210;6.838;2023-05-15T14:23:26;10.02;;;9.02;;
27491;SDS011;14927;51.210;6.838;2023-05-15T14:26:10;12.32;;;10.65;;
27491;SDS011;14927;51.210;6.838;2023-05-15T14:28:55;13.43;;;10.27;;
27491;SDS011;14927;51.210;6.838;2023-05-15T14:31:40;11.75;;;10.23;;
27491;SDS011;14927;51.210;6.838;2023-05-15T14:34:26;10.90;;;9.82;;
27491;SDS011;14927;51.210;6.838;2023-05-15T14:37:12;11.75;;;10.18;;
27491;SDS011;14927;51.210;6.838;2023-05-15T14:39:56;14.57;;;11.23;;
27491;SDS011;14927;51.210;6.838;2023-05-15T14:42:41;11.85;;;10.02;;
27491;SDS011;14927;51.210;6.838;2023-05-15T14:45:26;14.20;;;10.63;;
27491;SDS011;14927;51.210;6.838;2023-05-15T14:48:10;11.82;;;9.45;;
27491;SDS011;14927;51.210;6.838;2023-05-15T14:50:55;15.30;;;10.85;;
27491;SDS011;14927;51.210;6.838;2023-05-15T14:53:41;11.63;;;10.27;;
27491;SDS011;14927;51.210;6.838;2023-05-15T14:56:26;14.38;;;9.82;;
27491;SDS011;14927;51.210;6.838;2023-05-15T14:59:10;12.60;;;9.20;;
27491;SDS011;14927;51.210;6.838;2023-05-15T15:01:57;12.38;;;9.85;;
27491;SDS011;14927;51.210;6.838;2023-05-15T15:04:41;11.63;;;9.15;;
27491;SDS011;14927;51.210;6.838;2023-05-15T15:07:27;9.85;;;8.85;;
27491;SDS011;14927;51.210;6.838;2023-05-15T15:10:22;14.10;;;11.27;;
27491;SDS011;14927;51.210;6.838;2023-05-15T15:13:07;11.05;;;9.73;;
27491;SDS011;14927;51.210;6.838;2023-05-15T15:15:54;14.13;;;11.30;;
27491;SDS011;14927;51.210;6.838;2023-05-15T15:18:39;13.93;;;9.63;;
27491;SDS011;14927;51.210;6.838;2023-05-15T15:21:24;10.05;;;8.98;;
27491;SDS011;14927;51.210;6.838;2023-05-15T15:24:10;13.02;;;10.10;;
27491;SDS011;14927;51.210;6.838;2023-05-15T15:26:54;15.40;;;11.23;;
27491;SDS011;14927;51.210;6.838;2023-05-15T15:29:39;14.85;;;11.30;;
27491;SDS011;14927;51.210;6.838;2023-05-15T15:32:24;14.75;;;12.05;;
27491;SDS011;14927;51.210;6.838;2023-05-15T15:35:09;13.95;;;12.05;;
27491;SDS011;14927;51.210;6.838;2023-05-15T15:37:54;14.93;;;13.43;;
27491;SDS011;14927;51.210;6.838;2023-05-15T15:40:39;15.40;;;13.80;;
27491;SDS011;14927;51.210;6.838;2023-05-15T15:43:23;19.48;;;14.40;;
27491;SDS011;14927;51.210;6.838;2023-05-15T15:46:08;18.38;;;14.80;;
27491;SDS011;14927;51.210;6.838;2023-05-15T15:48:53;18.38;;;14.82;;
27491;SDS011;14927;51.210;6.838;2023-05-15T15:51:37;24.65;;;14.95;;
27491;SDS011;14927;51.210;6.838;2023-05-15T15:54:24;18.73;;;14.38;;
27491;SDS011;14927;51.210;6.838;2023-05-15T15:57:09;19.25;;;14.65;;
27491;SDS011;14927;51.210;6.838;2023-05-15T15:59:53;18.05;;;14.55;;
27491;SDS011;14927;51.210;6.838;2023-05-15T16:02:39;19.48;;;16.40;;
27491;SDS011;14927;51.210;6.838;2023-05-15T16:05:24;19.20;;;15.60;;
27491;SDS011;14927;51.210;6.838;2023-05-15T16:08:08;17.85;;;15.35;;
27491;SDS011;14927;51.210;6.838;2023-05-15T16:10:53;20.67;;;16.77;;
27491;SDS011;14927;51.210;6.838;2023-05-15T16:13:38;20.25;;;15.80;;
27491;SDS011;14927;51.210;6.838;2023-05-15T16:16:23;23.67;;;15.73;;
27491;SDS011;14927;51.210;6.838;2023-05-15T16:19:07;18.50;;;16.02;;
27491;SDS011;14927;51.210;6.838;2023-05-15T16:21:52;16.83;;;14.05;;
27491;SDS011;14927;51.210;6.838;2023-05-15T16:24:36;21.48;;;16.30;;
27491;SDS011;14927;51.210;6.838;2023-05-15T16:27:21;15.95;;;13.18;;
27491;SDS011;14927;51.210;6.838;2023-05-15T16:30:06;16.67;;;12.18;;
27491;SDS011;14927;51.210;6.838;2023-05-15T16:32:52;15.35;;;12.75;;
27491;SDS011;14927;51.210;6.838;2023-05-15T16:35:36;15.68;;;12.10;;
27491;SDS011;14927;51.210;6.838;2023-05-15T16:38:21;15.45;;;12.63;;
27491;SDS011;14927;51.210;6.838;2023-05-15T16:41:05;15.98;;;11.75;;